Coeur D'Alene - Pappy Boyington Field
KCOE : now visible

Airfield :











YOU CAN JOIN US ON...

 
LOGIN :

Register | Disclaimer

   EN    FR    IT 

 









Legend :    VFR   Marginal VFR   IFR   Intensive IFR   Very Intensive IFR
Visi :
Ceiling :
>= 8 km
>= 3000ft
5 to 8 km
1000 to 3000 ft
1500m to 5 km
500 to 1000 ft
800 to 1500m
200 to 500 ft
< 800m
< 200 ft
Symbols :   Thunderstorms  Fog  Heavy snow  Heavy precipitations  Wind > 20 kt






- Airport Elevation : 2320 ft


KCOE - Coeur D'Alene - Pappy Boyington Field

CURRENT METAR :
  • 141956Z AUTO 23004KT 10SM OVC012 01/M01 A2993 RMK AO2 SLP173 T00061011 FZRANO

EXPIRED METARs :
  • 141919Z AUTO 24006KT 10SM OVC014 01/M01 A2993 RMK AO2 FZRANO
  • 141856Z AUTO 24007KT 10SM OVC016 01/M01 A2993 RMK AO2 SLP173 T00061006 FZRANO
  • 141756Z AUTO 24005KT 10SM OVC018 01/M01 A2994 RMK AO2 RAB31E53 SLP176 P0000 60000 T00061006 10006 20000 53011 FZRANO

TAF KCOE
Valid from the 14 at 18:00 until the 15 at 18:00 UTC


141740Z 1418/1518 24005KT P6SM -SHSN OVC020
FM142000 24005KT P6SM VCSH OVC025
FM150600 VRB03KT P6SM OVC015
FM151200 VRB02KT 4SM BR OVC008



MET'MAP, your aeronautical weather chart ! - Copyright ORBIFLY December 2007 - Disclaimer

ORBIFLY MET'MAP TEAM :

Programming & Development : Alexandra Zaïnal
Concept & original design : Baudouin d'Aumeries
Assistance for programming : Marc-Olivier Méhu
Technical & hardware support : Manuel Goepfert

Contact : metmap@orbifly.com




SOURCES & CREDITS :

   NOAA       Earth
Advisory